sensor_id;sensor_type;location;lat;lon;timestamp;P1;durP1;ratioP1;P2;durP2;ratioP2
43857;SDS011;29507;51.284;5.758;2023-04-24T00:00:03;6.45;;;3.25;;
43857;SDS011;29507;51.284;5.758;2023-04-24T00:02:37;9.55;;;3.95;;
43857;SDS011;29507;51.284;5.758;2023-04-24T00:05:07;7.32;;;3.40;;
43857;SDS011;29507;51.284;5.758;2023-04-24T00:07:33;6.65;;;3.63;;
43857;SDS011;29507;51.284;5.758;2023-04-24T00:09:59;7.43;;;3.53;;
43857;SDS011;29507;51.284;5.758;2023-04-24T00:12:25;7.60;;;3.80;;
43857;SDS011;29507;51.284;5.758;2023-04-24T00:14:50;8.65;;;4.75;;
43857;SDS011;29507;51.284;5.758;2023-04-24T00:17:16;9.00;;;4.00;;
43857;SDS011;29507;51.284;5.758;2023-04-24T00:19:45;9.03;;;4.23;;
43857;SDS011;29507;51.284;5.758;2023-04-24T00:22:11;8.10;;;4.13;;
43857;SDS011;29507;51.284;5.758;2023-04-24T00:24:38;6.82;;;4.15;;
43857;SDS011;29507;51.284;5.758;2023-04-24T00:27:04;9.27;;;5.03;;
43857;SDS011;29507;51.284;5.758;2023-04-24T00:29:29;11.35;;;5.10;;
43857;SDS011;29507;51.284;5.758;2023-04-24T00:31:55;9.30;;;4.40;;
43857;SDS011;29507;51.284;5.758;2023-04-24T00:34:21;9.45;;;5.43;;
43857;SDS011;29507;51.284;5.758;2023-04-24T00:36:46;10.88;;;4.80;;
43857;SDS011;29507;51.284;5.758;2023-04-24T00:39:14;9.85;;;5.03;;
43857;SDS011;29507;51.284;5.758;2023-04-24T00:41:40;12.98;;;5.18;;
43857;SDS011;29507;51.284;5.758;2023-04-24T00:44:06;8.95;;;4.97;;
43857;SDS011;29507;51.284;5.758;2023-04-24T00:46:32;7.70;;;5.13;;
43857;SDS011;29507;51.284;5.758;2023-04-24T00:48:58;9.18;;;5.13;;
43857;SDS011;29507;51.284;5.758;2023-04-24T00:51:24;9.80;;;5.10;;
43857;SDS011;29507;51.284;5.758;2023-04-24T00:53:50;10.20;;;4.97;;
43857;SDS011;29507;51.284;5.758;2023-04-24T00:56:17;11.32;;;4.97;;
43857;SDS011;29507;51.284;5.758;2023-04-24T00:58:43;12.32;;;5.15;;
43857;SDS011;29507;51.284;5.758;2023-04-24T01:01:09;11.57;;;5.45;;
43857;SDS011;29507;51.284;5.758;2023-04-24T01:03:36;11.73;;;5.45;;
43857;SDS011;29507;51.284;5.758;2023-04-24T01:06:03;20.10;;;5.82;;
43857;SDS011;29507;51.284;5.758;2023-04-24T01:08:29;11.30;;;6.13;;
43857;SDS011;29507;51.284;5.758;2023-04-24T01:10:56;12.77;;;6.10;;
43857;SDS011;29507;51.284;5.758;2023-04-24T01:13:22;10.07;;;6.70;;
43857;SDS011;29507;51.284;5.758;2023-04-24T01:15:48;13.80;;;6.07;;
43857;SDS011;29507;51.284;5.758;2023-04-24T01:18:14;11.20;;;6.43;;
43857;SDS011;29507;51.284;5.758;2023-04-24T01:20:40;12.15;;;6.30;;
43857;SDS011;29507;51.284;5.758;2023-04-24T01:23:07;13.23;;;6.78;;
43857;SDS011;29507;51.284;5.758;2023-04-24T01:25:33;13.40;;;6.38;;
43857;SDS011;29507;51.284;5.758;2023-04-24T01:27:59;15.43;;;6.22;;
43857;SDS011;29507;51.284;5.758;2023-04-24T01:30:26;13.45;;;7.30;;
43857;SDS011;29507;51.284;5.758;2023-04-24T01:32:52;12.65;;;7.07;;
43857;SDS011;29507;51.284;5.758;2023-04-24T01:35:18;19.85;;;7.35;;
43857;SDS011;29507;51.284;5.758;2023-04-24T01:37:44;13.05;;;6.95;;
43857;SDS011;29507;51.284;5.758;2023-04-24T01:40:10;13.82;;;7.20;;
43857;SDS011;29507;51.284;5.758;2023-04-24T01:42:36;19.30;;;7.65;;
43857;SDS011;29507;51.284;5.758;2023-04-24T01:45:03;12.10;;;7.03;;
43857;SDS011;29507;51.284;5.758;2023-04-24T01:47:30;12.20;;;7.43;;
43857;SDS011;29507;51.284;5.758;2023-04-24T01:49:57;13.60;;;7.55;;
43857;SDS011;29507;51.284;5.758;2023-04-24T01:52:22;16.50;;;8.07;;
43857;SDS011;29507;51.284;5.758;2023-04-24T01:54:48;11.93;;;7.07;;
43857;SDS011;29507;51.284;5.758;2023-04-24T01:57:16;12.80;;;7.53;;
43857;SDS011;29507;51.284;5.758;2023-04-24T01:59:42;14.32;;;7.10;;
43857;SDS011;29507;51.284;5.758;2023-04-24T02:02:07;15.50;;;8.52;;
43857;SDS011;29507;51.284;5.758;2023-04-24T02:04:33;18.05;;;7.45;;
43857;SDS011;29507;51.284;5.758;2023-04-24T02:06:59;16.65;;;8.32;;
43857;SDS011;29507;51.284;5.758;2023-04-24T02:09:24;20.33;;;7.78;;
43857;SDS011;29507;51.284;5.758;2023-04-24T02:11:50;20.63;;;8.90;;
43857;SDS011;29507;51.284;5.758;2023-04-24T02:14:16;14.75;;;8.38;;
43857;SDS011;29507;51.284;5.758;2023-04-24T02:16:41;18.60;;;7.78;;
43857;SDS011;29507;51.284;5.758;2023-04-24T02:19:07;16.80;;;8.10;;
43857;SDS011;29507;51.284;5.758;2023-04-24T02:21:33;13.15;;;7.38;;
43857;SDS011;29507;51.284;5.758;2023-04-24T02:23:58;21.00;;;9.52;;
43857;SDS011;29507;51.284;5.758;2023-04-24T02:26:24;17.98;;;8.00;;
43857;SDS011;29507;51.284;5.758;2023-04-24T02:28:50;17.65;;;8.07;;
43857;SDS011;29507;51.284;5.758;2023-04-24T02:31:16;16.20;;;8.30;;
43857;SDS011;29507;51.284;5.758;2023-04-24T02:33:42;16.77;;;8.23;;
43857;SDS011;29507;51.284;5.758;2023-04-24T02:36:07;15.18;;;7.78;;
43857;SDS011;29507;51.284;5.758;2023-04-24T02:38:33;15.82;;;7.25;;
43857;SDS011;29507;51.284;5.758;2023-04-24T02:40:58;14.68;;;7.07;;
43857;SDS011;29507;51.284;5.758;2023-04-24T02:43:25;18.35;;;7.47;;
43857;SDS011;29507;51.284;5.758;2023-04-24T02:45:51;18.75;;;8.55;;
43857;SDS011;29507;51.284;5.758;2023-04-24T02:48:16;12.85;;;6.72;;
43857;SDS011;29507;51.284;5.758;2023-04-24T02:50:42;14.02;;;6.95;;
43857;SDS011;29507;51.284;5.758;2023-04-24T02:53:07;13.35;;;7.75;;
43857;SDS011;29507;51.284;5.758;2023-04-24T02:55:33;19.10;;;7.88;;
43857;SDS011;29507;51.284;5.758;2023-04-24T02:57:59;14.40;;;7.25;;
43857;SDS011;29507;51.284;5.758;2023-04-24T03:00:25;10.55;;;7.22;;
43857;SDS011;29507;51.284;5.758;2023-04-24T03:02:50;13.50;;;6.80;;
43857;SDS011;29507;51.284;5.758;2023-04-24T03:05:16;13.00;;;7.00;;
43857;SDS011;29507;51.284;5.758;2023-04-24T03:07:41;13.30;;;6.90;;
43857;SDS011;29507;51.284;5.758;2023-04-24T03:10:07;18.38;;;7.05;;
43857;SDS011;29507;51.284;5.758;2023-04-24T03:12:33;17.77;;;6.82;;
43857;SDS011;29507;51.284;5.758;2023-04-24T03:14:59;14.38;;;6.82;;
43857;SDS011;29507;51.284;5.758;2023-04-24T03:17:24;16.08;;;6.65;;
43857;SDS011;29507;51.284;5.758;2023-04-24T03:19:50;15.52;;;6.80;;
43857;SDS011;29507;51.284;5.758;2023-04-24T03:22:15;15.30;;;7.35;;
43857;SDS011;29507;51.284;5.758;2023-04-24T03:24:41;12.30;;;6.82;;
43857;SDS011;29507;51.284;5.758;2023-04-24T03:27:07;18.48;;;7.25;;
43857;SDS011;29507;51.284;5.758;2023-04-24T03:29:32;19.88;;;7.28;;
43857;SDS011;29507;51.284;5.758;2023-04-24T03:31:58;13.65;;;7.97;;
43857;SDS011;29507;51.284;5.758;2023-04-24T03:34:23;9.85;;;6.43;;
43857;SDS011;29507;51.284;5.758;2023-04-24T03:36:49;16.52;;;6.78;;
43857;SDS011;29507;51.284;5.758;2023-04-24T03:39:15;14.52;;;6.80;;
43857;SDS011;29507;51.284;5.758;2023-04-24T03:41:41;15.73;;;7.15;;
43857;SDS011;29507;51.284;5.758;2023-04-24T03:44:06;14.55;;;6.07;;
43857;SDS011;29507;51.284;5.758;2023-04-24T03:46:32;14.52;;;6.40;;
43857;SDS011;29507;51.284;5.758;2023-04-24T03:48:57;11.30;;;5.85;;
43857;SDS011;29507;51.284;5.758;2023-04-24T03:51:23;14.30;;;5.53;;
43857;SDS011;29507;51.284;5.758;2023-04-24T03:53:48;11.80;;;5.47;;
43857;SDS011;29507;51.284;5.758;2023-04-24T03:56:14;8.52;;;5.05;;
43857;SDS011;29507;51.284;5.758;2023-04-24T03:58:40;10.27;;;5.32;;
43857;SDS011;29507;51.284;5.758;2023-04-24T04:01:06;11.70;;;5.32;;
43857;SDS011;29507;51.284;5.758;2023-04-24T04:03:32;10.68;;;5.10;;
43857;SDS011;29507;51.284;5.758;2023-04-24T04:05:58;8.40;;;4.40;;
43857;SDS011;29507;51.284;5.758;2023-04-24T04:08:24;9.65;;;4.95;;
43857;SDS011;29507;51.284;5.758;2023-04-24T04:10:49;7.82;;;4.93;;
43857;SDS011;29507;51.284;5.758;2023-04-24T04:13:15;10.90;;;5.57;;
43857;SDS011;29507;51.284;5.758;2023-04-24T04:15:40;10.93;;;6.35;;
43857;SDS011;29507;51.284;5.758;2023-04-24T04:18:06;12.32;;;5.85;;
43857;SDS011;29507;51.284;5.758;2023-04-24T04:20:32;10.88;;;6.10;;
43857;SDS011;29507;51.284;5.758;2023-04-24T04:22:57;10.32;;;5.57;;
43857;SDS011;29507;51.284;5.758;2023-04-24T04:25:23;11.52;;;6.72;;
43857;SDS011;29507;51.284;5.758;2023-04-24T04:27:48;13.45;;;6.43;;
43857;SDS011;29507;51.284;5.758;2023-04-24T04:30:16;10.60;;;5.43;;
43857;SDS011;29507;51.284;5.758;2023-04-24T04:32:41;14.10;;;6.10;;
43857;SDS011;29507;51.284;5.758;2023-04-24T04:35:07;12.10;;;5.47;;
43857;SDS011;29507;51.284;5.758;2023-04-24T04:37:32;12.02;;;6.30;;
43857;SDS011;29507;51.284;5.758;2023-04-24T04:39:59;9.70;;;6.28;;
43857;SDS011;29507;51.284;5.758;2023-04-24T04:42:27;11.45;;;5.75;;
43857;SDS011;29507;51.284;5.758;2023-04-24T04:44:53;10.90;;;5.90;;
43857;SDS011;29507;51.284;5.758;2023-04-24T04:47:21;9.88;;;6.32;;
43857;SDS011;29507;51.284;5.758;2023-04-24T04:49:48;13.40;;;6.32;;
43857;SDS011;29507;51.284;5.758;2023-04-24T04:52:13;14.32;;;6.53;;
43857;SDS011;29507;51.284;5.758;2023-04-24T04:54:39;10.82;;;6.13;;
43857;SDS011;29507;51.284;5.758;2023-04-24T04:57:05;12.48;;;5.63;;
43857;SDS011;29507;51.284;5.758;2023-04-24T04:59:31;9.80;;;6.45;;
43857;SDS011;29507;51.284;5.758;2023-04-24T05:01:56;13.57;;;6.75;;
43857;SDS011;29507;51.284;5.758;2023-04-24T05:04:22;10.68;;;5.57;;
43857;SDS011;29507;51.284;5.758;2023-04-24T05:06:48;11.43;;;6.22;;
43857;SDS011;29507;51.284;5.758;2023-04-24T05:09:15;11.82;;;6.32;;
43857;SDS011;29507;51.284;5.758;2023-04-24T05:11:41;10.30;;;6.05;;
43857;SDS011;29507;51.284;5.758;2023-04-24T05:14:07;10.82;;;5.93;;
43857;SDS011;29507;51.284;5.758;2023-04-24T05:16:33;9.30;;;5.55;;
43857;SDS011;29507;51.284;5.758;2023-04-24T05:18:58;9.68;;;5.78;;
43857;SDS011;29507;51.284;5.758;2023-04-24T05:21:24;10.50;;;6.25;;
43857;SDS011;29507;51.284;5.758;2023-04-24T05:23:50;10.85;;;6.10;;
43857;SDS011;29507;51.284;5.758;2023-04-24T05:26:15;8.95;;;5.32;;
43857;SDS011;29507;51.284;5.758;2023-04-24T05:28:41;8.50;;;4.22;;
43857;SDS011;29507;51.284;5.758;2023-04-24T05:31:06;9.75;;;5.20;;
43857;SDS011;29507;51.284;5.758;2023-04-24T05:33:32;9.63;;;4.45;;
43857;SDS011;29507;51.284;5.758;2023-04-24T05:35:57;7.63;;;4.15;;
43857;SDS011;29507;51.284;5.758;2023-04-24T05:38:23;11.13;;;4.80;;
43857;SDS011;29507;51.284;5.758;2023-04-24T05:40:49;8.48;;;4.57;;
43857;SDS011;29507;51.284;5.758;2023-04-24T05:43:14;9.80;;;5.13;;
43857;SDS011;29507;51.284;5.758;2023-04-24T05:45:40;6.68;;;3.70;;
43857;SDS011;29507;51.284;5.758;2023-04-24T05:48:05;5.40;;;2.80;;
43857;SDS011;29507;51.284;5.758;2023-04-24T05:50:31;5.38;;;2.50;;
43857;SDS011;29507;51.284;5.758;2023-04-24T05:52:57;2.55;;;1.40;;
43857;SDS011;29507;51.284;5.758;2023-04-24T05:55:27;4.38;;;2.25;;
43857;SDS011;29507;51.284;5.758;2023-04-24T05:57:53;4.63;;;2.70;;
43857;SDS011;29507;51.284;5.758;2023-04-24T06:00:19;4.50;;;2.30;;
43857;SDS011;29507;51.284;5.758;2023-04-24T06:02:45;4.95;;;2.35;;
43857;SDS011;29507;51.284;5.758;2023-04-24T06:05:11;5.80;;;2.45;;
43857;SDS011;29507;51.284;5.758;2023-04-24T06:07:37;5.03;;;2.20;;
43857;SDS011;29507;51.284;5.758;2023-04-24T06:10:02;3.55;;;2.13;;
43857;SDS011;29507;51.284;5.758;2023-04-24T06:12:28;3.53;;;2.10;;
43857;SDS011;29507;51.284;5.758;2023-04-24T06:14:54;4.22;;;2.47;;
43857;SDS011;29507;51.284;5.758;2023-04-24T06:17:20;2.92;;;1.70;;
43857;SDS011;29507;51.284;5.758;2023-04-24T06:19:46;3.00;;;1.20;;
43857;SDS011;29507;51.284;5.758;2023-04-24T06:22:12;3.10;;;1.35;;
43857;SDS011;29507;51.284;5.758;2023-04-24T06:24:39;5.03;;;1.38;;
43857;SDS011;29507;51.284;5.758;2023-04-24T06:27:05;4.45;;;1.40;;
43857;SDS011;29507;51.284;5.758;2023-04-24T06:29:30;2.67;;;1.10;;
43857;SDS011;29507;51.284;5.758;2023-04-24T06:31:56;2.78;;;1.05;;
43857;SDS011;29507;51.284;5.758;2023-04-24T06:34:21;1.95;;;0.93;;
43857;SDS011;29507;51.284;5.758;2023-04-24T06:36:47;1.95;;;1.10;;
43857;SDS011;29507;51.284;5.758;2023-04-24T06:39:13;2.20;;;1.10;;
43857;SDS011;29507;51.284;5.758;2023-04-24T06:41:38;1.98;;;0.70;;
43857;SDS011;29507;51.284;5.758;2023-04-24T06:44:04;2.10;;;1.33;;
43857;SDS011;29507;51.284;5.758;2023-04-24T06:46:30;3.78;;;1.75;;
43857;SDS011;29507;51.284;5.758;2023-04-24T06:48:56;3.33;;;1.55;;
43857;SDS011;29507;51.284;5.758;2023-04-24T06:51:25;3.72;;;1.50;;
43857;SDS011;29507;51.284;5.758;2023-04-24T06:53:52;4.10;;;1.88;;
43857;SDS011;29507;51.284;5.758;2023-04-24T06:56:18;7.05;;;1.67;;
43857;SDS011;29507;51.284;5.758;2023-04-24T06:58:45;4.70;;;1.75;;
43857;SDS011;29507;51.284;5.758;2023-04-24T07:01:11;3.30;;;1.60;;
43857;SDS011;29507;51.284;5.758;2023-04-24T07:03:36;3.50;;;1.65;;
43857;SDS011;29507;51.284;5.758;2023-04-24T07:06:02;9.32;;;2.90;;
43857;SDS011;29507;51.284;5.758;2023-04-24T07:08:29;4.47;;;2.28;;
43857;SDS011;29507;51.284;5.758;2023-04-24T07:10:58;5.78;;;2.75;;
43857;SDS011;29507;51.284;5.758;2023-04-24T07:13:24;3.70;;;1.95;;
43857;SDS011;29507;51.284;5.758;2023-04-24T07:15:49;6.60;;;2.17;;
43857;SDS011;29507;51.284;5.758;2023-04-24T07:18:17;5.43;;;2.95;;
43857;SDS011;29507;51.284;5.758;2023-04-24T07:20:43;7.57;;;2.72;;
43857;SDS011;29507;51.284;5.758;2023-04-24T07:23:09;12.18;;;3.58;;
43857;SDS011;29507;51.284;5.758;2023-04-24T07:25:35;5.60;;;2.88;;
43857;SDS011;29507;51.284;5.758;2023-04-24T07:28:01;7.35;;;3.67;;
43857;SDS011;29507;51.284;5.758;2023-04-24T07:30:26;8.50;;;3.63;;
43857;SDS011;29507;51.284;5.758;2023-04-24T07:32:54;9.63;;;3.85;;
43857;SDS011;29507;51.284;5.758;2023-04-24T07:35:20;7.43;;;3.45;;
43857;SDS011;29507;51.284;5.758;2023-04-24T07:37:45;5.50;;;3.55;;
43857;SDS011;29507;51.284;5.758;2023-04-24T07:40:12;10.68;;;4.50;;
43857;SDS011;29507;51.284;5.758;2023-04-24T07:42:38;7.82;;;3.97;;
43857;SDS011;29507;51.284;5.758;2023-04-24T07:45:04;9.35;;;4.07;;
43857;SDS011;29507;51.284;5.758;2023-04-24T07:47:30;9.07;;;3.97;;
43857;SDS011;29507;51.284;5.758;2023-04-24T07:49:56;7.03;;;3.63;;
43857;SDS011;29507;51.284;5.758;2023-04-24T07:52:22;13.00;;;5.18;;
43857;SDS011;29507;51.284;5.758;2023-04-24T07:54:48;11.88;;;4.65;;
43857;SDS011;29507;51.284;5.758;2023-04-24T07:57:15;7.75;;;4.40;;
43857;SDS011;29507;51.284;5.758;2023-04-24T07:59:41;9.18;;;4.20;;
43857;SDS011;29507;51.284;5.758;2023-04-24T08:02:06;9.80;;;4.20;;
43857;SDS011;29507;51.284;5.758;2023-04-24T08:04:32;14.88;;;5.07;;
43857;SDS011;29507;51.284;5.758;2023-04-24T08:06:58;7.03;;;3.95;;
43857;SDS011;29507;51.284;5.758;2023-04-24T08:09:23;9.80;;;3.95;;
43857;SDS011;29507;51.284;5.758;2023-04-24T08:11:49;11.52;;;5.03;;
43857;SDS011;29507;51.284;5.758;2023-04-24T08:14:15;12.18;;;3.80;;
43857;SDS011;29507;51.284;5.758;2023-04-24T08:16:41;8.48;;;3.78;;
43857;SDS011;29507;51.284;5.758;2023-04-24T08:19:06;9.55;;;4.80;;
43857;SDS011;29507;51.284;5.758;2023-04-24T08:21:32;8.98;;;4.10;;
43857;SDS011;29507;51.284;5.758;2023-04-24T08:23:58;14.13;;;5.57;;
43857;SDS011;29507;51.284;5.758;2023-04-24T08:26:23;15.30;;;5.57;;
43857;SDS011;29507;51.284;5.758;2023-04-24T08:28:49;16.15;;;5.10;;
43857;SDS011;29507;51.284;5.758;2023-04-24T08:31:15;10.05;;;4.85;;
43857;SDS011;29507;51.284;5.758;2023-04-24T08:33:40;15.27;;;5.55;;
43857;SDS011;29507;51.284;5.758;2023-04-24T08:36:06;14.57;;;5.32;;
43857;SDS011;29507;51.284;5.758;2023-04-24T08:38:33;20.60;;;5.30;;
43857;SDS011;29507;51.284;5.758;2023-04-24T08:40:59;17.23;;;5.90;;
43857;SDS011;29507;51.284;5.758;2023-04-24T08:43:26;13.43;;;4.97;;
43857;SDS011;29507;51.284;5.758;2023-04-24T08:45:52;13.88;;;5.53;;
43857;SDS011;29507;51.284;5.758;2023-04-24T08:48:21;11.90;;;4.68;;
43857;SDS011;29507;51.284;5.758;2023-04-24T08:50:48;10.30;;;4.50;;
43857;SDS011;29507;51.284;5.758;2023-04-24T08:53:18;11.32;;;4.47;;
43857;SDS011;29507;51.284;5.758;2023-04-24T08:55:46;15.48;;;3.92;;
43857;SDS011;29507;51.284;5.758;2023-04-24T08:58:13;12.60;;;3.45;;
43857;SDS011;29507;51.284;5.758;2023-04-24T09:00:40;8.60;;;3.35;;
43857;SDS011;29507;51.284;5.758;2023-04-24T09:03:11;8.30;;;3.63;;
43857;SDS011;29507;51.284;5.758;2023-04-24T09:05:44;13.80;;;3.92;;
43857;SDS011;29507;51.284;5.758;2023-04-24T09:08:12;7.72;;;4.03;;
43857;SDS011;29507;51.284;5.758;2023-04-24T09:10:39;9.90;;;3.88;;
43857;SDS011;29507;51.284;5.758;2023-04-24T09:13:05;9.40;;;2.67;;
43857;SDS011;29507;51.284;5.758;2023-04-24T09:15:34;14.27;;;3.20;;
43857;SDS011;29507;51.284;5.758;2023-04-24T09:18:00;10.82;;;3.13;;
43857;SDS011;29507;51.284;5.758;2023-04-24T09:20:27;11.90;;;3.40;;
43857;SDS011;29507;51.284;5.758;2023-04-24T09:22:53;8.55;;;3.00;;
43857;SDS011;29507;51.284;5.758;2023-04-24T09:25:20;7.03;;;2.67;;
43857;SDS011;29507;51.284;5.758;2023-04-24T09:27:46;9.52;;;2.72;;
43857;SDS011;29507;51.284;5.758;2023-04-24T09:30:12;7.82;;;2.28;;
43857;SDS011;29507;51.284;5.758;2023-04-24T09:32:39;9.25;;;3.17;;
43857;SDS011;29507;51.284;5.758;2023-04-24T09:35:09;6.05;;;1.50;;
43857;SDS011;29507;51.284;5.758;2023-04-24T09:37:36;5.60;;;1.88;;
43857;SDS011;29507;51.284;5.758;2023-04-24T09:42:45;11.52;;;2.35;;
43857;SDS011;29507;51.284;5.758;2023-04-24T09:45:16;9.13;;;2.30;;
43857;SDS011;29507;51.284;5.758;2023-04-24T09:47:41;10.35;;;2.67;;
43857;SDS011;29507;51.284;5.758;2023-04-24T09:50:11;10.10;;;2.42;;
43857;SDS011;29507;51.284;5.758;2023-04-24T09:52:44;6.68;;;1.98;;
43857;SDS011;29507;51.284;5.758;2023-04-24T09:55:20;11.68;;;2.30;;
43857;SDS011;29507;51.284;5.758;2023-04-24T09:57:56;10.68;;;2.38;;
43857;SDS011;29507;51.284;5.758;2023-04-24T10:00:25;14.10;;;2.17;;
43857;SDS011;29507;51.284;5.758;2023-04-24T10:03:01;10.35;;;2.22;;
43857;SDS011;29507;51.284;5.758;2023-04-24T10:05:30;8.48;;;2.40;;
43857;SDS011;29507;51.284;5.758;2023-04-24T10:08:01;8.38;;;1.73;;
43857;SDS011;29507;51.284;5.758;2023-04-24T10:10:28;10.80;;;2.53;;
43857;SDS011;29507;51.284;5.758;2023-04-24T10:12:54;13.50;;;2.95;;
43857;SDS011;29507;51.284;5.758;2023-04-24T10:15:20;12.32;;;2.35;;
43857;SDS011;29507;51.284;5.758;2023-04-24T10:17:50;8.85;;;2.58;;
43857;SDS011;29507;51.284;5.758;2023-04-24T10:20:20;10.15;;;2.72;;
43857;SDS011;29507;51.284;5.758;2023-04-24T10:22:47;7.38;;;2.17;;
43857;SDS011;29507;51.284;5.758;2023-04-24T10:25:16;6.80;;;2.35;;
43857;SDS011;29507;51.284;5.758;2023-04-24T10:27:46;7.47;;;2.17;;
43857;SDS011;29507;51.284;5.758;2023-04-24T10:30:13;9.68;;;2.65;;
43857;SDS011;29507;51.284;5.758;2023-04-24T10:32:39;9.48;;;2.42;;
43857;SDS011;29507;51.284;5.758;2023-04-24T10:35:08;7.53;;;2.10;;
43857;SDS011;29507;51.284;5.758;2023-04-24T10:37:39;7.28;;;1.70;;
43857;SDS011;29507;51.284;5.758;2023-04-24T10:40:07;5.28;;;2.35;;
43857;SDS011;29507;51.284;5.758;2023-04-24T10:42:34;4.07;;;1.45;;
43857;SDS011;29507;51.284;5.758;2023-04-24T10:45:04;6.95;;;1.80;;
43857;SDS011;29507;51.284;5.758;2023-04-24T10:47:41;6.60;;;1.50;;
43857;SDS011;29507;51.284;5.758;2023-04-24T10:50:10;9.05;;;1.95;;
43857;SDS011;29507;51.284;5.758;2023-04-24T10:52:45;3.97;;;1.52;;
43857;SDS011;29507;51.284;5.758;2023-04-24T10:55:12;8.35;;;2.10;;
43857;SDS011;29507;51.284;5.758;2023-04-24T10:57:39;6.95;;;1.42;;
43857;SDS011;29507;51.284;5.758;2023-04-24T11:00:25;6.00;;;1.40;;
43857;SDS011;29507;51.284;5.758;2023-04-24T11:02:52;11.90;;;1.30;;
43857;SDS011;29507;51.284;5.758;2023-04-24T11:05:18;5.22;;;1.10;;
43857;SDS011;29507;51.284;5.758;2023-04-24T11:10:55;5.13;;;1.10;;
43857;SDS011;29507;51.284;5.758;2023-04-24T11:13:25;1.10;;;0.50;;
43857;SDS011;29507;51.284;5.758;2023-04-24T11:18:41;3.60;;;0.90;;
43857;SDS011;29507;51.284;5.758;2023-04-24T11:21:18;2.80;;;0.70;;
43857;SDS011;29507;51.284;5.758;2023-04-24T11:23:44;2.15;;;0.68;;
43857;SDS011;29507;51.284;5.758;2023-04-24T11:26:11;3.45;;;0.80;;
43857;SDS011;29507;51.284;5.758;2023-04-24T11:28:48;2.63;;;0.70;;
43857;SDS011;29507;51.284;5.758;2023-04-24T11:31:34;2.85;;;0.60;;
43857;SDS011;29507;51.284;5.758;2023-04-24T11:34:10;5.63;;;0.80;;
43857;SDS011;29507;51.284;5.758;2023-04-24T11:36:39;1.40;;;0.60;;
43857;SDS011;29507;51.284;5.758;2023-04-24T11:39:07;4.90;;;1.10;;
43857;SDS011;29507;51.284;5.758;2023-04-24T11:41:33;6.38;;;0.95;;
43857;SDS011;29507;51.284;5.758;2023-04-24T11:44:00;5.18;;;0.95;;
43857;SDS011;29507;51.284;5.758;2023-04-24T11:46:27;2.70;;;1.13;;
43857;SDS011;29507;51.284;5.758;2023-04-24T11:48:55;4.18;;;1.08;;
43857;SDS011;29507;51.284;5.758;2023-04-24T11:51:22;4.55;;;1.20;;
43857;SDS011;29507;51.284;5.758;2023-04-24T11:53:50;5.18;;;1.10;;
43857;SDS011;29507;51.284;5.758;2023-04-24T11:56:19;5.53;;;0.70;;
43857;SDS011;29507;51.284;5.758;2023-04-24T11:58:47;3.50;;;0.88;;
43857;SDS011;29507;51.284;5.758;2023-04-24T12:01:13;2.38;;;0.80;;
43857;SDS011;29507;51.284;5.758;2023-04-24T12:03:39;2.92;;;0.70;;
43857;SDS011;29507;51.284;5.758;2023-04-24T12:06:08;3.00;;;0.70;;
43857;SDS011;29507;51.284;5.758;2023-04-24T12:08:35;7.28;;;1.60;;
43857;SDS011;29507;51.284;5.758;2023-04-24T12:11:02;5.13;;;0.80;;
43857;SDS011;29507;51.284;5.758;2023-04-24T12:13:28;4.10;;;0.98;;
43857;SDS011;29507;51.284;5.758;2023-04-24T12:15:54;2.63;;;0.50;;
43857;SDS011;29507;51.284;5.758;2023-04-24T12:18:24;5.85;;;1.20;;
43857;SDS011;29507;51.284;5.758;2023-04-24T12:23:16;1.55;;;0.70;;
43857;SDS011;29507;51.284;5.758;2023-04-24T12:25:42;5.43;;;1.10;;
43857;SDS011;29507;51.284;5.758;2023-04-24T12:28:12;6.13;;;0.95;;
43857;SDS011;29507;51.284;5.758;2023-04-24T12:30:43;3.33;;;0.93;;
43857;SDS011;29507;51.284;5.758;2023-04-24T12:33:16;3.50;;;0.90;;
43857;SDS011;29507;51.284;5.758;2023-04-24T12:35:46;5.55;;;0.80;;
43857;SDS011;29507;51.284;5.758;2023-04-24T12:38:13;1.40;;;0.60;;
43857;SDS011;29507;51.284;5.758;2023-04-24T12:40:40;5.82;;;1.00;;
43857;SDS011;29507;51.284;5.758;2023-04-24T12:43:15;3.70;;;1.00;;
43857;SDS011;29507;51.284;5.758;2023-04-24T12:45:42;5.68;;;0.82;;
43857;SDS011;29507;51.284;5.758;2023-04-24T12:48:08;2.80;;;0.77;;
43857;SDS011;29507;51.284;5.758;2023-04-24T12:50:33;3.10;;;0.75;;
43857;SDS011;29507;51.284;5.758;2023-04-24T12:52:59;2.10;;;0.60;;
43857;SDS011;29507;51.284;5.758;2023-04-24T12:55:24;1.48;;;0.70;;
43857;SDS011;29507;51.284;5.758;2023-04-24T12:57:50;3.28;;;0.93;;
43857;SDS011;29507;51.284;5.758;2023-04-24T13:00:17;6.00;;;0.80;;
43857;SDS011;29507;51.284;5.758;2023-04-24T13:02:42;4.40;;;0.82;;
43857;SDS011;29507;51.284;5.758;2023-04-24T13:05:11;4.05;;;0.80;;
43857;SDS011;29507;51.284;5.758;2023-04-24T13:07:38;5.25;;;0.88;;
43857;SDS011;29507;51.284;5.758;2023-04-24T13:10:05;1.95;;;0.52;;
43857;SDS011;29507;51.284;5.758;2023-04-24T13:12:31;4.35;;;0.70;;
43857;SDS011;29507;51.284;5.758;2023-04-24T13:14:57;1.83;;;0.75;;
43857;SDS011;29507;51.284;5.758;2023-04-24T13:17:23;6.45;;;1.30;;
43857;SDS011;29507;51.284;5.758;2023-04-24T13:19:49;2.88;;;0.80;;
43857;SDS011;29507;51.284;5.758;2023-04-24T13:22:16;2.97;;;0.95;;
43857;SDS011;29507;51.284;5.758;2023-04-24T13:24:43;3.67;;;0.80;;
43857;SDS011;29507;51.284;5.758;2023-04-24T13:27:10;1.42;;;0.47;;
43857;SDS011;29507;51.284;5.758;2023-04-24T13:29:36;5.45;;;0.90;;
43857;SDS011;29507;51.284;5.758;2023-04-24T13:32:02;6.63;;;0.98;;
43857;SDS011;29507;51.284;5.758;2023-04-24T13:34:27;5.00;;;0.70;;
43857;SDS011;29507;51.284;5.758;2023-04-24T13:36:54;4.22;;;1.00;;
43857;SDS011;29507;51.284;5.758;2023-04-24T13:39:21;5.55;;;1.13;;
43857;SDS011;29507;51.284;5.758;2023-04-24T13:41:47;7.00;;;0.98;;
43857;SDS011;29507;51.284;5.758;2023-04-24T13:44:13;2.20;;;0.85;;
43857;SDS011;29507;51.284;5.758;2023-04-24T13:46:40;4.13;;;0.70;;
43857;SDS011;29507;51.284;5.758;2023-04-24T13:49:06;5.35;;;1.23;;
43857;SDS011;29507;51.284;5.758;2023-04-24T13:51:32;2.15;;;0.77;;
43857;SDS011;29507;51.284;5.758;2023-04-24T13:53:57;4.35;;;0.70;;
43857;SDS011;29507;51.284;5.758;2023-04-24T13:56:24;2.30;;;0.90;;
43857;SDS011;29507;51.284;5.758;2023-04-24T13:58:50;3.80;;;0.88;;
43857;SDS011;29507;51.284;5.758;2023-04-24T14:01:16;3.88;;;1.67;;
43857;SDS011;29507;51.284;5.758;2023-04-24T14:03:42;3.20;;;0.95;;
43857;SDS011;29507;51.284;5.758;2023-04-24T14:06:10;3.00;;;0.60;;
43857;SDS011;29507;51.284;5.758;2023-04-24T14:08:36;2.50;;;0.98;;
43857;SDS011;29507;51.284;5.758;2023-04-24T14:11:01;3.47;;;1.13;;
43857;SDS011;29507;51.284;5.758;2023-04-24T14:13:27;4.32;;;0.85;;
43857;SDS011;29507;51.284;5.758;2023-04-24T14:15:53;3.20;;;1.13;;
43857;SDS011;29507;51.284;5.758;2023-04-24T14:18:19;4.25;;;0.90;;
43857;SDS011;29507;51.284;5.758;2023-04-24T14:20:45;2.05;;;0.77;;
43857;SDS011;29507;51.284;5.758;2023-04-24T14:23:10;2.92;;;0.80;;
43857;SDS011;29507;51.284;5.758;2023-04-24T14:25:36;4.38;;;0.82;;
43857;SDS011;29507;51.284;5.758;2023-04-24T14:28:02;3.08;;;0.80;;
43857;SDS011;29507;51.284;5.758;2023-04-24T14:30:27;9.55;;;1.65;;
43857;SDS011;29507;51.284;5.758;2023-04-24T14:32:53;3.33;;;0.88;;
43857;SDS011;29507;51.284;5.758;2023-04-24T14:35:19;3.40;;;1.00;;
43857;SDS011;29507;51.284;5.758;2023-04-24T14:37:44;5.13;;;1.20;;
43857;SDS011;29507;51.284;5.758;2023-04-24T14:40:10;2.85;;;0.95;;
43857;SDS011;29507;51.284;5.758;2023-04-24T14:42:36;1.45;;;0.60;;
43857;SDS011;29507;51.284;5.758;2023-04-24T14:45:02;4.25;;;0.90;;
43857;SDS011;29507;51.284;5.758;2023-04-24T14:47:27;5.53;;;0.80;;
43857;SDS011;29507;51.284;5.758;2023-04-24T14:49:54;3.13;;;1.08;;